Time;durP1;ratioP1;P1;durP2;ratioP2;P2;SDS_P1;SDS_P2;PMS_P1;PMS_P2;Temp;Humidity;BMP_temperature;BMP_pressure;BME280_temperature;BME280_humidity;BME280_pressure;Samples;Min_cycle;Max_cycle;Signal;HPM_P1;HPM_P2
2021/03/17 00:00:55;;;;;;;14.15;4.80;;;;;;;2.25;100.00;98020.53;5014473;28;20042;-79
2021/03/17 00:03:23;;;;;;;16.30;4.63;;;;;;;2.22;100.00;98026.38;5015327;28;20658;-79
2021/03/17 00:05:50;;;;;;;11.50;4.50;;;;;;;2.16;100.00;98008.69;5015164;28;20041;-79
2021/03/17 00:08:20;;;;;;;18.30;4.60;;;;;;;2.19;100.00;98023.41;5014915;28;20096;-78
2021/03/17 00:10:51;;;;;;;17.92;5.10;;;;;;;2.18;100.00;98016.44;5016583;28;20050;-79
2021/03/17 00:13:25;;;;;;;13.65;4.40;;;;;;;2.11;100.00;98019.31;5034106;28;20110;-79
2021/03/17 00:15:53;;;;;;;14.73;4.70;;;;;;;2.09;100.00;98020.63;5035921;28;20137;-78
2021/03/17 00:18:20;;;;;;;18.17;5.10;;;;;;;2.10;100.00;98014.22;5021297;28;20041;-78
2021/03/17 00:20:46;;;;;;;12.32;4.72;;;;;;;2.08;100.00;98017.16;5022439;28;20077;-79
2021/03/17 00:23:13;;;;;;;16.20;5.07;;;;;;;2.01;100.00;98013.88;5004936;28;20123;-79
2021/03/17 00:25:41;;;;;;;13.90;5.07;;;;;;;2.02;100.00;98012.81;5020253;28;20122;-78
2021/03/17 00:28:11;;;;;;;16.33;5.30;;;;;;;2.04;100.00;98018.69;5017839;28;20050;-80
2021/03/17 00:30:41;;;;;;;15.05;4.85;;;;;;;1.96;100.00;98013.00;5017641;28;20053;-80
2021/03/17 00:33:11;;;;;;;16.05;5.30;;;;;;;1.95;100.00;98012.19;5019287;28;20053;-80
2021/03/17 00:35:40;;;;;;;18.77;5.00;;;;;;;1.91;100.00;98012.97;5015931;28;20566;-78
2021/03/17 00:38:08;;;;;;;18.58;5.03;;;;;;;1.86;100.00;98019.03;5016439;28;20069;-79
2021/03/17 00:40:35;;;;;;;18.35;5.13;;;;;;;1.86;100.00;98011.81;5032372;28;20120;-80
2021/03/17 00:43:02;;;;;;;22.02;5.55;;;;;;;1.75;100.00;98011.97;4999266;28;20113;-80
2021/03/17 00:45:28;;;;;;;15.57;5.03;;;;;;;1.69;100.00;98008.44;5016058;28;20065;-80
2021/03/17 00:47:55;;;;;;;11.15;4.38;;;;;;;1.64;100.00;98008.38;5014716;28;20165;-79
2021/03/17 00:50:22;;;;;;;16.98;4.47;;;;;;;1.58;100.00;98012.03;5016569;28;20038;-79
2021/03/17 00:52:56;;;;;;;18.33;4.72;;;;;;;1.56;100.00;98002.66;5016031;28;20133;-79
2021/03/17 00:55:23;;;;;;;18.83;5.10;;;;;;;1.46;100.00;98003.34;4999561;28;20050;-80
2021/03/17 00:57:49;;;;;;;19.40;4.82;;;;;;;1.39;100.00;98001.91;5032862;28;20101;-79
2021/03/17 01:00:17;;;;;;;18.52;4.28;;;;;;;1.35;100.00;98014.09;5019752;28;20053;-80
2021/03/17 01:02:44;;;;;;;21.58;5.07;;;;;;;1.25;100.00;98014.78;5021055;28;20236;-79
2021/03/17 01:05:11;;;;;;;17.35;3.88;;;;;;;1.20;100.00;98006.72;5015645;28;20069;-80
2021/03/17 01:07:37;;;;;;;22.88;4.70;;;;;;;1.14;100.00;98008.50;5016421;28;20038;-80
2021/03/17 01:10:14;;;;;;;15.35;4.40;;;;;;;1.09;100.00;98007.63;4999031;28;20054;-80
2021/03/17 01:12:41;;;;;;;19.02;4.35;;;;;;;1.06;100.00;98018.75;5015877;28;20460;-78
2021/03/17 01:15:12;;;;;;;24.70;4.80;;;;;;;1.06;100.00;98016.91;5014582;28;20054;-80
2021/03/17 01:17:39;;;;;;;18.35;4.45;;;;;;;1.06;100.00;98013.44;5016008;28;20046;-79
2021/03/17 01:20:07;;;;;;;16.67;4.30;;;;;;;1.07;100.00;98015.06;5014620;28;20049;-80
2021/03/17 01:22:34;;;;;;;16.73;4.82;;;;;;;1.06;100.00;98018.75;5016493;28;20077;-78
2021/03/17 01:25:00;;;;;;;10.63;3.90;;;;;;;1.04;100.00;98019.03;5016960;28;20046;-79
2021/03/17 01:27:26;;;;;;;18.08;3.85;;;;;;;1.03;100.00;98017.41;5017451;28;20057;-78
2021/03/17 01:29:52;;;;;;;14.00;4.00;;;;;;;1.05;100.00;98017.16;5000495;28;20060;-79
2021/03/17 01:32:18;;;;;;;16.38;4.38;;;;;;;1.05;100.00;98009.16;5013913;28;20565;-79
2021/03/17 01:34:45;;;;;;;17.25;3.97;;;;;;;0.98;100.00;98006.66;5015160;28;20604;-78
2021/03/17 01:37:12;;;;;;;21.13;3.42;;;;;;;0.89;100.00;98008.13;5013891;28;20130;-80
2021/03/17 01:39:38;;;;;;;14.48;3.20;;;;;;;0.85;100.00;98004.31;5016360;28;20046;-79
2021/03/17 01:42:05;;;;;;;12.82;2.80;;;;;;;0.86;100.00;98005.13;5015375;28;20049;-79
2021/03/17 01:44:31;;;;;;;14.20;2.72;;;;;;;0.78;100.00;98002.88;5015288;28;20053;-78
2021/03/17 01:46:59;;;;;;;14.13;3.00;;;;;;;0.71;100.00;98018.22;5014772;28;20048;-79
2021/03/17 01:49:27;;;;;;;11.60;2.88;;;;;;;0.66;100.00;98010.16;5030873;28;20042;-78
2021/03/17 01:51:53;;;;;;;14.95;2.80;;;;;;;0.61;100.00;98005.56;5014248;28;20491;-80
2021/03/17 01:54:20;;;;;;;16.33;3.25;;;;;;;0.57;100.00;98015.88;5014845;28;20042;-80
2021/03/17 01:56:46;;;;;;;12.90;2.70;;;;;;;0.62;100.00;98015.16;5015203;28;20049;-80
2021/03/17 01:59:13;;;;;;;18.40;2.67;;;;;;;0.57;100.00;98017.72;5013400;28;20041;-79
2021/03/17 02:01:39;;;;;;;16.02;2.38;;;;;;;0.54;100.00;98013.69;5014424;28;20489;-79
2021/03/17 02:04:07;;;;;;;13.27;2.50;;;;;;;0.52;100.00;98013.13;5014629;28;20093;-79
2021/03/17 02:06:33;;;;;;;12.23;2.78;;;;;;;0.47;100.00;98012.25;4999554;28;20086;-79
2021/03/17 02:08:59;;;;;;;9.45;2.08;;;;;;;0.50;100.00;98017.09;5017080;28;20082;-79
2021/03/17 02:11:25;;;;;;;12.45;2.40;;;;;;;0.52;100.00;98020.31;5017290;28;20495;-79
2021/03/17 02:14:34;;;;;;;13.88;2.30;;;;;;;0.57;100.00;98015.88;5015497;28;20053;-78
2021/03/17 02:17:08;;;;;;;13.05;2.17;;;;;;;0.62;100.00;98010.63;4998906;28;20118;-80
2021/03/17 02:20:12;;;;;;;12.07;2.25;;;;;;;0.68;100.00;98018.72;5031150;28;20050;-78
2021/03/17 02:22:49;;;;;;;7.72;2.08;;;;;;;0.62;100.00;98015.97;5033175;28;20038;-81
2021/03/17 02:25:34;;;;;;;13.02;2.13;;;;;;;0.58;100.00;98012.19;5016151;28;20405;-78
2021/03/17 02:28:19;;;;;;;19.10;2.30;;;;;;;0.57;100.00;98020.41;5039443;28;20046;-77
2021/03/17 02:31:14;;;;;;;10.38;1.83;;;;;;;0.55;100.00;98017.19;5031988;28;20077;-78
2021/03/17 02:33:47;;;;;;;10.70;2.05;;;;;;;0.53;100.00;98011.28;5050221;28;20042;-79
2021/03/17 02:36:17;;;;;;;11.52;2.00;;;;;;;0.52;100.00;98010.47;5033828;28;20093;-78
2021/03/17 02:38:52;;;;;;;9.68;1.73;;;;;;;0.47;100.00;98007.72;5024154;28;20065;-78
2021/03/17 02:41:24;;;;;;;9.93;1.83;;;;;;;0.42;100.00;98018.28;5018413;28;20050;-79
2021/03/17 02:43:54;;;;;;;13.10;2.38;;;;;;;0.49;100.00;98023.47;5018563;28;20050;-78
2021/03/17 02:46:24;;;;;;;13.38;2.20;;;;;;;0.49;100.00;98010.94;5020522;28;20042;-79
2021/03/17 02:49:07;;;;;;;15.07;2.88;;;;;;;0.53;100.00;98012.09;5020028;28;20065;-80
2021/03/17 02:51:39;;;;;;;10.73;2.00;;;;;;;0.63;100.00;98014.13;5003560;28;20571;-80
2021/03/17 02:54:09;;;;;;;9.18;2.20;;;;;;;0.67;100.00;98023.25;5034581;28;20109;-80
2021/03/17 02:56:41;;;;;;;13.27;2.10;;;;;;;0.73;100.00;98027.59;5017874;28;20048;-80
2021/03/17 02:59:09;;;;;;;14.52;2.78;;;;;;;0.75;100.00;98027.38;5018998;28;20092;-80
2021/03/17 03:01:37;;;;;;;9.80;2.33;;;;;;;0.75;100.00;98014.84;5017474;28;20121;-78
2021/03/17 03:04:07;;;;;;;9.77;2.38;;;;;;;0.66;100.00;98018.97;5016387;28;20474;-80
2021/03/17 03:06:35;;;;;;;17.45;3.83;;;;;;;0.68;100.00;98024.84;5019717;28;20034;-80
2021/03/17 03:09:01;;;;;;;11.88;2.55;;;;;;;0.67;100.00;98017.94;5033690;28;20129;-81
2021/03/17 03:11:28;;;;;;;13.88;3.05;;;;;;;0.69;100.00;98013.16;5016949;28;20446;-80
2021/03/17 03:13:56;;;;;;;11.98;2.67;;;;;;;0.71;100.00;98005.72;5000918;28;20243;-79
2021/03/17 03:16:26;;;;;;;15.07;3.33;;;;;;;0.71;100.00;98023.56;5016481;28;20202;-80
2021/03/17 03:18:53;;;;;;;14.88;3.00;;;;;;;0.72;100.00;98023.34;5015033;28;20586;-78
2021/03/17 03:21:23;;;;;;;11.25;2.65;;;;;;;0.77;100.00;98019.94;5014322;28;20057;-79
2021/03/17 03:23:52;;;;;;;18.95;3.35;;;;;;;0.75;100.00;98012.16;5013413;28;20064;-79
2021/03/17 03:26:19;;;;;;;14.73;3.17;;;;;;;0.80;100.00;98019.47;4998574;28;20641;-80
2021/03/17 03:28:48;;;;;;;13.52;3.97;;;;;;;0.76;100.00;98018.31;5032963;28;20060;-80
2021/03/17 03:31:14;;;;;;;13.45;3.28;;;;;;;0.76;100.00;98016.47;5015828;28;20042;-80
2021/03/17 03:33:42;;;;;;;8.38;3.10;;;;;;;0.80;100.00;98022.13;4999910;28;20045;-78
2021/03/17 03:36:09;;;;;;;14.25;3.30;;;;;;;0.79;100.00;98023.16;5017511;28;20094;-79
2021/03/17 03:38:35;;;;;;;17.42;3.25;;;;;;;0.72;100.00;98025.19;4999953;28;20050;-80
2021/03/17 03:41:02;;;;;;;10.38;3.20;;;;;;;0.71;100.00;98034.22;5017607;28;20049;-80
2021/03/17 03:43:28;;;;;;;12.98;3.30;;;;;;;0.64;100.00;98018.41;5017005;28;20101;-80
2021/03/17 03:45:55;;;;;;;14.32;3.65;;;;;;;0.58;100.00;98036.16;5014396;28;20502;-80
2021/03/17 03:48:22;;;;;;;14.43;3.55;;;;;;;0.66;100.00;98026.94;5016368;28;20042;-79
2021/03/17 03:50:51;;;;;;;11.23;3.00;;;;;;;0.69;100.00;98036.31;4998379;28;20080;-81
2021/03/17 03:53:29;;;;;;;13.30;3.17;;;;;;;0.66;100.00;98032.28;5013960;28;20065;-78
2021/03/17 03:56:12;;;;;;;14.23;3.33;;;;;;;0.62;100.00;98026.63;5016311;28;20038;-78
2021/03/17 03:58:52;;;;;;;16.02;3.40;;;;;;;0.50;100.00;98033.88;5016960;28;20065;-79
2021/03/17 04:01:27;;;;;;;9.82;3.35;;;;;;;0.50;100.00;98044.53;5017662;28;20085;-78
2021/03/17 04:04:03;;;;;;;16.83;4.07;;;;;;;0.51;100.00;98032.03;5032374;28;20077;-78
2021/03/17 04:06:31;;;;;;;15.82;3.47;;;;;;;0.49;100.00;98037.59;5019394;28;20050;-78
2021/03/17 04:09:00;;;;;;;17.52;4.13;;;;;;;0.51;100.00;98051.50;5033237;28;20049;-78
2021/03/17 04:11:27;;;;;;;19.60;5.15;;;;;;;0.52;100.00;98036.28;5015273;28;20057;-78
2021/03/17 04:13:57;;;;;;;13.18;3.90;;;;;;;0.50;100.00;98039.22;5017205;28;20050;-78
2021/03/17 04:16:25;;;;;;;19.30;4.00;;;;;;;0.57;100.00;98042.53;5000237;28;20113;-78
2021/03/17 04:18:55;;;;;;;20.08;4.65;;;;;;;0.50;100.00;98041.06;5017267;28;20074;-80
2021/03/17 04:21:29;;;;;;;20.58;4.25;;;;;;;0.61;100.00;98040.19;5034283;28;20248;-81
2021/03/17 04:23:59;;;;;;;17.70;3.95;;;;;;;0.57;100.00;98045.19;5033798;28;20041;-79
2021/03/17 04:26:27;;;;;;;18.23;4.00;;;;;;;0.62;100.00;98033.78;5000369;28;20069;-80
2021/03/17 04:28:55;;;;;;;23.05;4.63;;;;;;;0.49;100.00;98036.81;5018215;28;20049;-80
2021/03/17 04:31:23;;;;;;;18.10;4.80;;;;;;;0.48;100.00;98036.00;5018059;28;20065;-80
2021/03/17 04:33:50;;;;;;;26.88;4.85;;;;;;;0.41;100.00;98037.19;5017735;28;20066;-81
2021/03/17 04:36:17;;;;;;;20.75;4.57;;;;;;;0.42;100.00;98050.25;5033676;28;20100;-78
2021/03/17 04:38:45;;;;;;;20.17;5.72;;;;;;;0.43;100.00;98056.41;5019299;28;20042;-80
2021/03/17 04:41:13;;;;;;;18.42;5.90;;;;;;;0.47;100.00;98061.00;5018921;28;20056;-80
2021/03/17 04:43:42;;;;;;;23.95;4.72;;;;;;;0.44;100.00;98055.34;5018007;28;20041;-80
2021/03/17 04:46:10;;;;;;;15.32;4.90;;;;;;;0.42;100.00;98052.91;5015935;28;20041;-79
2021/03/17 04:48:43;;;;;;;21.52;5.78;;;;;;;0.42;100.00;98057.44;5008329;28;20506;-79
2021/03/17 04:51:11;;;;;;;19.08;5.35;;;;;;;0.29;100.00;98060.38;4997788;28;20046;-79
2021/03/17 04:53:40;;;;;;;20.52;6.15;;;;;;;0.32;100.00;98062.56;4996787;28;20051;-78
2021/03/17 04:56:07;;;;;;;18.42;4.68;;;;;;;0.39;100.00;98057.91;4978977;28;20118;-80
2021/03/17 04:58:38;;;;;;;20.35;5.78;;;;;;;0.29;100.00;98063.03;4995619;28;20490;-79
2021/03/17 05:01:06;;;;;;;28.85;6.70;;;;;;;0.29;100.00;98074.50;4996206;28;20046;-79
2021/03/17 05:03:33;;;;;;;25.63;5.72;;;;;;;0.27;100.00;98070.47;4978263;28;20379;-80
2021/03/17 05:06:01;;;;;;;25.40;6.20;;;;;;;0.24;100.00;98066.44;4978758;28;20052;-79
2021/03/17 05:08:29;;;;;;;20.40;5.90;;;;;;;0.23;100.00;98070.16;4995210;28;20570;-79
2021/03/17 05:10:57;;;;;;;35.15;6.25;;;;;;;0.24;100.00;98085.06;4995424;28;20085;-80
2021/03/17 05:13:23;;;;;;;17.80;6.10;;;;;;;0.26;100.00;98082.19;4994632;28;20125;-80
2021/03/17 05:15:50;;;;;;;23.63;6.00;;;;;;;0.25;100.00;98077.91;4995313;28;20046;-77
2021/03/17 05:18:19;;;;;;;18.77;6.55;;;;;;;0.30;100.00;98091.28;4995398;28;20545;-80
2021/03/17 05:20:52;;;;;;;30.00;6.43;;;;;;;0.32;100.00;98081.22;4994246;28;20306;-78
2021/03/17 05:23:19;;;;;;;24.08;5.93;;;;;;;0.30;100.00;98080.66;4993748;28;20054;-78
2021/03/17 05:25:47;;;;;;;25.67;7.50;;;;;;;0.59;100.00;98075.03;4978336;28;20054;-79
2021/03/17 05:28:15;;;;;;;25.35;6.65;;;;;;;0.66;100.00;98079.41;5000781;28;20053;-79
2021/03/17 05:30:43;;;;;;;17.75;5.60;;;;;;;0.68;100.00;98075.47;4999357;28;20053;-79
2021/03/17 05:33:15;;;;;;;14.52;5.25;;;;;;;0.71;100.00;98068.84;5008339;28;20090;-80
2021/03/17 05:35:41;;;;;;;17.02;4.93;;;;;;;0.55;100.00;98070.44;5016374;28;20049;-80
2021/03/17 05:38:07;;;;;;;17.15;4.60;;;;;;;0.52;100.00;98084.22;5012366;28;20046;-80
2021/03/17 05:40:35;;;;;;;21.10;4.78;;;;;;;0.47;100.00;98082.28;5018771;28;20049;-79
2021/03/17 05:43:04;;;;;;;18.55;5.32;;;;;;;0.47;100.00;98074.31;5050297;28;20030;-78
2021/03/17 05:45:34;;;;;;;20.90;5.25;;;;;;;0.44;100.00;98081.97;5029334;28;20041;-80
2021/03/17 05:48:10;;;;;;;17.67;5.32;;;;;;;0.48;100.00;98078.59;5041226;22;20042;-78
2021/03/17 05:50:39;;;;;;;22.42;6.18;;;;;;;0.39;100.00;98090.66;5076949;28;20135;-77
2021/03/17 05:53:08;;;;;;;20.50;6.43;;;;;;;0.41;100.00;98090.44;5091057;28;20040;-76
2021/03/17 05:55:35;;;;;;;17.88;5.85;;;;;;;0.45;100.00;98097.72;5091850;28;20048;-78
2021/03/17 05:58:02;;;;;;;22.55;6.72;;;;;;;0.48;100.00;98093.75;5102471;22;20054;-74
2021/03/17 06:00:28;;;;;;;18.75;6.43;;;;;;;0.50;100.00;98095.13;5067965;28;20037;-75
2021/03/17 06:02:56;;;;;;;26.38;6.55;;;;;;;0.43;100.00;98094.50;5068480;28;20074;-74
2021/03/17 06:05:23;;;;;;;18.52;6.10;;;;;;;0.41;100.00;98088.56;5073361;28;20036;-79
2021/03/17 06:08:06;;;;;;;17.95;6.07;;;;;;;0.49;100.00;98098.06;5051176;28;20044;-75
2021/03/17 06:10:35;;;;;;;15.35;5.93;;;;;;;0.41;100.00;98087.78;5054789;28;20048;-76
2021/03/17 06:13:10;;;;;;;22.42;6.70;;;;;;;0.39;100.00;98096.00;5070992;28;20045;-76
2021/03/17 06:15:45;;;;;;;26.20;6.78;;;;;;;0.46;100.00;98101.19;5073031;28;20054;-75
2021/03/17 06:18:35;;;;;;;23.75;6.82;;;;;;;0.46;100.00;98106.50;5072298;28;20469;-75
2021/03/17 06:21:03;;;;;;;20.10;5.78;;;;;;;0.47;100.00;98097.47;5072301;28;20059;-74
2021/03/17 06:23:32;;;;;;;18.23;5.20;;;;;;;0.53;100.00;98112.50;5072716;28;20044;-76
2021/03/17 06:25:58;;;;;;;17.48;4.90;;;;;;;0.57;100.00;98109.09;5044699;28;20064;-74
2021/03/17 06:28:27;;;;;;;18.98;5.85;;;;;;;0.67;100.00;98113.03;5042592;28;20048;-76
2021/03/17 06:30:57;;;;;;;18.05;5.03;;;;;;;0.67;100.00;98118.34;5071688;28;20063;-75
2021/03/17 06:33:24;;;;;;;20.13;5.35;;;;;;;0.61;100.00;98123.59;5037452;28;20522;-74
2021/03/17 06:36:14;;;;;;;23.10;5.10;;;;;;;0.70;100.00;98123.19;5071905;28;20215;-74
2021/03/17 06:38:42;;;;;;;20.60;5.05;;;;;;;0.69;100.00;98126.91;5054683;28;20572;-75
2021/03/17 06:41:08;;;;;;;17.08;4.70;;;;;;;0.69;100.00;98126.91;5072286;28;20223;-73
2021/03/17 06:43:40;;;;;;;19.50;4.72;;;;;;;0.71;100.00;98119.47;5071882;28;20407;-74
2021/03/17 06:46:14;;;;;;;19.25;4.70;;;;;;;0.87;100.00;98126.69;5071506;28;20040;-76
2021/03/17 06:48:56;;;;;;;18.35;4.97;;;;;;;0.78;100.00;98126.25;5056431;28;20500;-76
2021/03/17 06:51:22;;;;;;;19.95;4.28;;;;;;;0.72;100.00;98129.09;5071820;28;20606;-75
2021/03/17 06:54:03;;;;;;;14.75;4.43;;;;;;;0.77;100.00;98129.19;5053828;28;20357;-76
2021/03/17 06:56:33;;;;;;;28.13;7.20;;;;;;;0.69;100.00;98130.38;5072276;28;20036;-76
2021/03/17 06:59:05;;;;;;;21.85;6.05;;;;;;;0.76;100.00;98128.38;5070958;28;20071;-76
2021/03/17 07:01:35;;;;;;;17.70;5.40;;;;;;;0.88;100.00;98120.31;5071625;28;20511;-76
2021/03/17 07:04:09;;;;;;;22.20;6.05;;;;;;;0.80;100.00;98116.16;5070937;28;20052;-75
2021/03/17 07:06:37;;;;;;;24.00;7.32;;;;;;;0.88;100.00;98121.09;5071288;28;20488;-76
2021/03/17 07:09:26;;;;;;;20.35;7.63;;;;;;;0.71;100.00;98112.28;5071400;28;20063;-76
2021/03/17 07:12:04;;;;;;;22.10;7.40;;;;;;;0.94;100.00;98130.81;5071351;28;20504;-74
2021/03/17 07:14:37;;;;;;;20.42;7.28;;;;;;;0.97;100.00;98119.69;5053124;28;20053;-73
2021/03/17 07:17:03;;;;;;;22.17;7.88;;;;;;;0.95;100.00;98123.63;5070099;28;20510;-74
2021/03/17 07:19:38;;;;;;;21.17;8.13;;;;;;;0.96;100.00;98118.03;5071018;28;20041;-74
2021/03/17 07:22:13;;;;;;;27.33;9.00;;;;;;;1.18;100.00;98121.63;5041820;28;20048;-75
2021/03/17 07:24:41;;;;;;;29.10;8.75;;;;;;;1.29;100.00;98124.44;5050719;28;20408;-74
2021/03/17 07:27:17;;;;;;;19.73;8.85;;;;;;;1.45;100.00;98104.94;5050891;28;20045;-75
2021/03/17 07:29:44;;;;;;;21.02;9.52;;;;;;;1.48;100.00;98112.44;5051714;28;20124;-75
2021/03/17 07:32:11;;;;;;;26.35;9.95;;;;;;;1.52;100.00;98102.91;5050888;28;20389;-75
2021/03/17 07:34:38;;;;;;;25.48;9.75;;;;;;;1.39;100.00;98108.59;5016302;28;20084;-75
2021/03/17 07:37:06;;;;;;;32.28;10.18;;;;;;;1.27;100.00;98090.00;5053051;28;20041;-75
2021/03/17 07:39:36;;;;;;;27.13;10.52;;;;;;;1.29;100.00;98121.78;5032899;28;20214;-75
2021/03/17 07:42:08;;;;;;;32.83;12.02;;;;;;;1.19;100.00;98123.22;5032992;28;20803;-75
2021/03/17 07:44:36;;;;;;;37.38;11.20;;;;;;;1.19;100.00;98120.56;5032911;28;20124;-75
2021/03/17 07:47:11;;;;;;;24.17;9.15;;;;;;;1.22;100.00;98117.41;5050231;28;20037;-75
2021/03/17 07:49:44;;;;;;;18.63;7.85;;;;;;;1.13;100.00;98129.53;5050867;28;20037;-75
2021/03/17 07:52:27;;;;;;;23.45;7.53;;;;;;;1.14;100.00;98114.31;5032057;28;20159;-74
2021/03/17 07:55:03;;;;;;;24.73;9.77;;;;;;;1.14;100.00;98131.13;5050517;28;20045;-75
2021/03/17 07:57:30;;;;;;;21.08;8.35;;;;;;;1.16;100.00;98128.25;5050505;28;20048;-74
2021/03/17 07:59:56;;;;;;;26.50;8.27;;;;;;;1.08;100.00;98124.13;5050830;28;20056;-74
2021/03/17 08:02:23;;;;;;;20.02;7.82;;;;;;;1.13;100.00;98112.72;5032852;28;20056;-75
2021/03/17 08:04:51;;;;;;;22.90;8.25;;;;;;;1.27;100.00;98125.47;5067459;28;20063;-74
2021/03/17 08:07:18;;;;;;;21.02;8.07;;;;;;;1.27;100.00;98127.34;5052565;28;20040;-76
2021/03/17 08:09:45;;;;;;;23.00;8.13;;;;;;;1.34;100.00;98144.00;5052902;28;20044;-75
2021/03/17 08:12:11;;;;;;;15.57;6.90;;;;;;;1.40;100.00;98128.88;5052412;28;20091;-76
2021/03/17 08:14:44;;;;;;;20.98;7.22;;;;;;;1.43;100.00;98144.38;5070116;28;20451;-75
2021/03/17 08:17:11;;;;;;;18.20;7.15;;;;;;;1.41;100.00;98133.97;5069850;28;20041;-76
2021/03/17 08:19:45;;;;;;;26.20;10.05;;;;;;;1.39;100.00;98135.28;5049966;28;20048;-76
2021/03/17 08:22:13;;;;;;;21.80;10.77;;;;;;;1.31;100.00;98139.16;5051769;28;20515;-75
2021/03/17 08:24:41;;;;;;;21.52;11.20;;;;;;;1.47;100.00;98143.66;5069579;28;20056;-75
2021/03/17 08:27:08;;;;;;;25.77;10.85;;;;;;;1.53;100.00;98136.53;5069411;28;20404;-75
2021/03/17 08:29:42;;;;;;;28.23;11.32;;;;;;;1.71;100.00;98146.94;5070640;28;20055;-74
2021/03/17 08:32:11;;;;;;;27.95;11.20;;;;;;;1.81;100.00;98149.75;5069622;28;20124;-75
2021/03/17 08:34:38;;;;;;;18.30;9.70;;;;;;;1.93;100.00;98153.13;5068991;28;20040;-75
2021/03/17 08:37:07;;;;;;;25.63;11.40;;;;;;;1.91;100.00;98136.53;5052184;28;20043;-75
2021/03/17 08:39:36;;;;;;;25.38;12.52;;;;;;;1.81;100.00;98144.41;5055061;28;20385;-74
2021/03/17 08:42:09;;;;;;;32.40;14.73;;;;;;;1.68;100.00;98148.22;5052038;28;20488;-74
2021/03/17 08:44:38;;;;;;;27.88;14.10;;;;;;;1.66;100.00;98147.69;5051854;28;20055;-74
2021/03/17 08:47:17;;;;;;;33.42;14.60;;;;;;;1.87;100.00;98144.25;5051569;28;20305;-74
2021/03/17 08:49:47;;;;;;;29.02;13.23;;;;;;;1.78;100.00;98145.72;5069690;28;20215;-74
2021/03/17 08:52:22;;;;;;;19.13;11.18;;;;;;;1.58;100.00;98142.75;5051307;28;20293;-73
2021/03/17 08:54:57;;;;;;;26.87;12.57;;;;;;;1.66;100.00;98157.53;5069587;28;20044;-75
2021/03/17 08:57:23;;;;;;;19.50;11.93;;;;;;;1.50;100.00;98151.16;5073590;28;20286;-73
2021/03/17 08:59:55;;;;;;;26.90;12.70;;;;;;;1.58;100.00;98153.44;5051948;28;20754;-74
2021/03/17 09:02:24;;;;;;;23.35;12.88;;;;;;;1.76;100.00;98155.81;5051319;28;20062;-74
2021/03/17 09:04:51;;;;;;;24.33;12.27;;;;;;;1.66;100.00;98154.88;5069231;28;20052;-74
2021/03/17 09:07:19;;;;;;;25.60;12.75;;;;;;;1.57;100.00;98159.03;5068629;28;20047;-75
2021/03/17 09:09:54;;;;;;;25.60;13.68;;;;;;;1.65;100.00;98162.06;5069636;28;20063;-74
2021/03/17 09:12:26;;;;;;;26.33;14.00;;;;;;;1.57;100.00;98165.16;5051483;28;20503;-73
2021/03/17 09:15:12;;;;;;;24.83;12.38;;;;;;;1.70;100.00;98159.47;5069430;28;20049;-75
2021/03/17 09:17:55;;;;;;;21.58;11.32;;;;;;;1.82;100.00;98156.72;5050319;28;20049;-74
2021/03/17 09:20:33;;;;;;;21.75;11.10;;;;;;;1.77;100.00;98156.63;5069332;28;20143;-75
2021/03/17 09:23:05;;;;;;;24.55;11.15;;;;;;;1.88;100.00;98159.19;5068837;28;20098;-74
2021/03/17 09:25:33;;;;;;;20.27;11.45;;;;;;;1.84;100.00;98162.59;5051419;28;20048;-74
2021/03/17 09:28:04;;;;;;;22.13;11.85;;;;;;;1.73;100.00;98156.31;5068333;28;20045;-74
2021/03/17 09:30:37;;;;;;;23.17;11.27;;;;;;;1.69;100.00;98165.06;5069113;28;20405;-74
2021/03/17 09:33:10;;;;;;;19.83;9.45;;;;;;;1.51;100.00;98170.66;5068743;28;20045;-75
2021/03/17 09:35:38;;;;;;;22.02;8.93;;;;;;;1.54;100.00;98154.97;5052310;28;20083;-74
2021/03/17 09:38:10;;;;;;;17.65;9.60;;;;;;;1.57;100.00;98156.34;5048584;28;20400;-75
2021/03/17 09:40:53;;;;;;;20.60;9.32;;;;;;;1.42;100.00;98169.47;5047748;28;20045;-75
2021/03/17 09:43:32;;;;;;;20.83;9.05;;;;;;;1.35;100.00;98171.47;5049006;28;20115;-74
2021/03/17 09:46:00;;;;;;;22.08;8.88;;;;;;;1.39;100.00;98172.59;5030657;28;20321;-75
2021/03/17 09:48:27;;;;;;;20.55;10.43;;;;;;;1.41;100.00;98176.66;5048616;28;20432;-74
2021/03/17 09:50:59;;;;;;;27.10;10.80;;;;;;;1.42;100.00;98156.91;5049023;28;20045;-75
2021/03/17 09:53:26;;;;;;;25.52;12.55;;;;;;;1.38;100.00;98182.47;5033496;28;20132;-74
2021/03/17 09:55:53;;;;;;;24.52;11.43;;;;;;;1.44;100.00;98183.34;5048870;28;20049;-75
2021/03/17 09:58:21;;;;;;;25.55;10.75;;;;;;;1.45;100.00;98184.94;5031264;28;20045;-75
2021/03/17 10:00:49;;;;;;;25.35;10.73;;;;;;;1.49;100.00;98180.78;5031929;28;20044;-75
2021/03/17 10:03:15;;;;;;;25.08;10.98;;;;;;;1.44;100.00;98189.50;5048766;28;20090;-74
2021/03/17 10:05:42;;;;;;;27.42;11.50;;;;;;;1.50;100.00;98185.84;5048808;28;20048;-74
2021/03/17 10:08:09;;;;;;;26.55;10.32;;;;;;;1.40;100.00;98182.22;5030516;28;20037;-75
2021/03/17 10:10:36;;;;;;;24.73;11.07;;;;;;;1.34;100.00;98188.53;5031499;28;20048;-75
2021/03/17 10:13:02;;;;;;;31.65;11.93;;;;;;;1.25;100.00;98186.25;5050703;28;20124;-78
2021/03/17 10:15:29;;;;;;;23.73;11.57;;;;;;;1.29;100.00;98196.44;5040150;28;20136;-76
2021/03/17 10:17:57;;;;;;;24.40;11.88;;;;;;;1.36;100.00;98202.44;5038319;28;20041;-74
2021/03/17 10:20:27;;;;;;;22.40;11.00;;;;;;;1.41;100.00;98199.84;5048951;28;20082;-75
2021/03/17 10:22:59;;;;;;;27.70;10.95;;;;;;;1.47;100.00;98204.22;5031241;28;20594;-75
2021/03/17 10:25:29;;;;;;;33.05;11.38;;;;;;;1.51;100.00;98202.66;5048028;28;20068;-75
2021/03/17 10:28:05;;;;;;;24.55;11.48;;;;;;;1.65;100.00;98196.75;5030751;28;20072;-75
2021/03/17 10:30:37;;;;;;;23.75;10.32;;;;;;;1.59;100.00;98200.41;5030883;28;20123;-76
2021/03/17 10:33:20;;;;;;;22.88;10.30;;;;;;;1.40;100.00;98200.88;5048176;28;20119;-75
2021/03/17 10:35:48;;;;;;;19.35;9.48;;;;;;;1.41;100.00;98199.84;5030240;28;20295;-75
2021/03/17 10:38:14;;;;;;;18.95;9.05;;;;;;;1.44;100.00;98210.03;5048149;28;20045;-74
2021/03/17 10:40:44;;;;;;;26.35;10.13;;;;;;;1.45;100.00;98211.63;5048133;28;20406;-74
2021/03/17 10:43:14;;;;;;;23.17;9.38;;;;;;;1.46;100.00;98203.41;5037065;28;20053;-73
2021/03/17 10:45:42;;;;;;;17.33;8.75;;;;;;;1.49;100.00;98208.25;5049669;28;20136;-74
2021/03/17 10:48:10;;;;;;;18.55;8.82;;;;;;;1.63;100.00;98217.53;5030736;28;20182;-73
2021/03/17 10:50:39;;;;;;;20.63;9.30;;;;;;;1.76;100.00;98203.06;5050531;28;20586;-74
2021/03/17 10:53:26;;;;;;;22.92;8.63;;;;;;;1.88;100.00;98187.78;5051296;28;20037;-75
2021/03/17 10:55:54;;;;;;;20.92;8.77;;;;;;;1.82;100.00;98204.75;5052224;28;20045;-76
2021/03/17 10:58:22;;;;;;;21.33;9.57;;;;;;;1.87;100.00;98197.63;5036933;28;20416;-75
2021/03/17 11:00:53;;;;;;;23.10;9.57;;;;;;;2.09;100.00;98194.97;5053785;28;20051;-74
2021/03/17 11:03:31;;;;;;;22.75;8.52;;;;;;;2.30;100.00;98194.19;5071733;28;20041;-74
2021/03/17 11:06:17;;;;;;;18.73;8.27;;;;;;;2.29;100.00;98194.47;5071152;28;20410;-74
2021/03/17 11:08:46;;;;;;;28.15;9.50;;;;;;;2.19;100.00;98181.78;5051745;28;20044;-74
2021/03/17 11:11:13;;;;;;;19.73;8.80;;;;;;;2.02;100.00;98199.69;5051954;28;20048;-75
2021/03/17 11:13:44;;;;;;;27.10;9.52;;;;;;;1.96;100.00;98187.34;5034001;28;20127;-75
2021/03/17 11:16:14;;;;;;;28.35;9.85;;;;;;;1.99;100.00;98188.72;5038976;28;20055;-74
2021/03/17 11:18:47;;;;;;;25.17;11.10;;;;;;;1.81;100.00;98200.47;5051724;28;20536;-74
2021/03/17 11:21:22;;;;;;;31.95;10.95;;;;;;;1.83;100.00;98209.84;5051414;28;20051;-74
2021/03/17 11:23:50;;;;;;;36.50;12.38;;;;;;;1.81;100.00;98205.78;5033476;28;20041;-74
2021/03/17 11:26:23;;;;;;;28.77;11.18;;;;;;;1.69;100.00;98229.09;5033476;28;20049;-74
2021/03/17 11:28:51;;;;;;;25.42;11.25;;;;;;;1.52;100.00;98218.44;5051058;28;20554;-73
2021/03/17 11:31:34;;;;;;;33.65;12.13;;;;;;;1.51;100.00;98224.00;5050942;28;20049;-74
2021/03/17 11:34:02;;;;;;;35.85;12.85;;;;;;;1.49;100.00;98213.59;5039314;28;20052;-74
2021/03/17 11:36:29;;;;;;;32.38;13.07;;;;;;;1.65;100.00;98225.31;5033181;28;20112;-75
2021/03/17 11:38:58;;;;;;;35.53;12.98;;;;;;;1.85;100.00;98218.44;5050922;28;20052;-72